createdAt,value
2023-04-26T00:00:45.294Z,101239.81
2023-04-26T00:05:46.857Z,101238.09
2023-04-26T00:10:48.369Z,101237.53
2023-04-26T00:15:50.044Z,101233.97
2023-04-26T00:20:51.628Z,101238.56
2023-04-26T00:25:53.158Z,101228.09
2023-04-26T00:30:54.764Z,101233.06
2023-04-26T00:35:56.368Z,101231.22
2023-04-26T00:40:57.991Z,101229.72
2023-04-26T00:45:59.640Z,101226.56
2023-04-26T00:51:01.423Z,101216.25
2023-04-26T00:56:03.486Z,101218.66
2023-04-26T01:01:05.144Z,101217.09
2023-04-26T01:06:07.133Z,101220.94
2023-04-26T01:11:12.001Z,101220.13
2023-04-26T01:16:15.144Z,101224.88
2023-04-26T01:21:23.877Z,101236.50
2023-04-26T01:26:25.869Z,101236.19
2023-04-26T01:31:29.052Z,101228.50
2023-04-26T01:36:30.748Z,101230.56
2023-04-26T01:41:34.004Z,101232.66
2023-04-26T01:46:35.826Z,101238.94
2023-04-26T01:51:37.732Z,101231.06
2023-04-26T01:56:42.061Z,101222.19
2023-04-26T02:01:43.633Z,101228.06
2023-04-26T02:06:45.793Z,101225.53
2023-04-26T02:11:47.671Z,101234.63
2023-04-26T02:16:49.702Z,101224.63
2023-04-26T02:21:56.465Z,101228.19
2023-04-26T02:26:57.929Z,101228.81
2023-04-26T02:31:59.708Z,101224.94
2023-04-26T02:37:01.955Z,101226.13
2023-04-26T02:42:03.775Z,101222.94
2023-04-26T02:47:05.689Z,101226.81
2023-04-26T02:52:07.592Z,101221.50
2023-04-26T02:57:09.891Z,101222.81
2023-04-26T03:02:11.524Z,101219.66
2023-04-26T03:07:13.476Z,101223.31
2023-04-26T03:12:14.986Z,101211.28
2023-04-26T03:17:16.640Z,101213.66
2023-04-26T03:22:18.623Z,101217.31
2023-04-26T03:27:20.361Z,101223.66
2023-04-26T03:32:22.318Z,101220.47
2023-04-26T03:37:24.662Z,101209.88
2023-04-26T03:42:33.686Z,101212.00
2023-04-26T03:47:35.401Z,101207.06
2023-04-26T03:52:37.756Z,101207.28
2023-04-26T03:57:40.286Z,101203.41
2023-04-26T04:02:43.025Z,101209.53
2023-04-26T04:07:48.440Z,101204.72
2023-04-26T04:12:51.354Z,101220.72
2023-04-26T04:17:53.410Z,101210.84
2023-04-26T04:22:56.487Z,101222.16
2023-04-26T04:27:58.198Z,101223.50
2023-04-26T04:33:00.066Z,101231.63
2023-04-26T04:38:01.689Z,101237.63
2023-04-26T04:43:04.426Z,101234.25
2023-04-26T04:48:07.939Z,101237.78
2023-04-26T04:53:11.119Z,101246.84
2023-04-26T04:58:12.837Z,101247.97
2023-04-26T05:03:15.218Z,101250.63
2023-04-26T05:08:17.555Z,101263.84
2023-04-26T05:13:19.471Z,101268.19
2023-04-26T05:18:21.430Z,101275.34
2023-04-26T05:23:23.927Z,101275.84
2023-04-26T05:28:25.995Z,101284.38
2023-04-26T05:33:56.805Z,101291.63
2023-04-26T05:39:04.628Z,101290.69
2023-04-26T05:44:07.064Z,101298.19
2023-04-26T05:49:09.125Z,101309.44
2023-04-26T05:54:10.863Z,101311.34
2023-04-26T05:59:13.300Z,101311.53
2023-04-26T06:04:15.554Z,101318.19
2023-04-26T06:09:33.031Z,101320.50
2023-04-26T06:14:34.806Z,101321.69
2023-04-26T06:19:41.015Z,101324.09
2023-04-26T06:24:42.978Z,101324.22
2023-04-26T06:29:44.872Z,101329.81
2023-04-26T06:34:46.969Z,101332.91
2023-04-26T06:39:48.753Z,101338.97
2023-04-26T06:44:50.995Z,101345.97
2023-04-26T06:49:52.648Z,101337.34
2023-04-26T06:54:57.634Z,101338.56
2023-04-26T06:59:59.743Z,101343.19
2023-04-26T07:05:01.922Z,101334.16
2023-04-26T07:10:04.174Z,101341.13
2023-04-26T07:15:06.602Z,101332.13
2023-04-26T07:20:08.844Z,101335.88
2023-04-26T07:25:10.333Z,101331.25
2023-04-26T07:30:12.018Z,101324.94
2023-04-26T07:35:13.532Z,101331.66
2023-04-26T07:40:15.629Z,101328.72
2023-04-26T07:45:17.235Z,101336.19
2023-04-26T07:50:19.042Z,101336.88
2023-04-26T07:55:21.504Z,101336.16
2023-04-26T08:00:23.991Z,101336.41
2023-04-26T08:05:26.751Z,101338.59
2023-04-26T08:10:28.492Z,101336.81
2023-04-26T08:15:30.342Z,101330.97
2023-04-26T08:20:32.818Z,101328.53
2023-04-26T08:25:34.814Z,101323.47
2023-04-26T08:30:36.770Z,101328.31
2023-04-26T08:35:38.405Z,101331.69
2023-04-26T08:40:43.254Z,101338.91
2023-04-26T08:45:46.527Z,101330.72
2023-04-26T08:50:48.441Z,101329.72
2023-04-26T08:55:50.970Z,101334.47
2023-04-26T09:00:52.908Z,101322.88
2023-04-26T09:05:55.311Z,101326.88
2023-04-26T09:11:01.041Z,101330.72
2023-04-26T09:16:04.761Z,101328.00
2023-04-26T09:21:08.936Z,101334.00
2023-04-26T09:26:17.734Z,101331.84
2023-04-26T09:31:43.051Z,101327.47
2023-04-26T09:36:52.728Z,101328.00
2023-04-26T09:41:54.531Z,101325.22
2023-04-26T09:47:10.947Z,101320.41
2023-04-26T09:52:12.481Z,101309.00
2023-04-26T09:57:15.971Z,101304.97
2023-04-26T10:02:26.015Z,101301.56
2023-04-26T10:07:30.285Z,101298.88
2023-04-26T10:12:31.882Z,101297.03
2023-04-26T10:17:33.553Z,101292.97
2023-04-26T10:22:40.569Z,101302.78
2023-04-26T10:27:45.285Z,101303.25
2023-04-26T10:32:52.861Z,101297.34
2023-04-26T10:38:01.149Z,101289.44
2023-04-26T10:43:08.696Z,101291.41
2023-04-26T10:48:23.770Z,101285.41
2023-04-26T10:53:25.881Z,101281.78
2023-04-26T10:58:34.213Z,101277.66
2023-04-26T11:03:36.199Z,101275.44
2023-04-26T11:08:38.261Z,101279.72
2023-04-26T11:13:44.062Z,101279.31
2023-04-26T11:18:47.302Z,101274.19
2023-04-26T11:23:55.481Z,101254.81
2023-04-26T11:28:57.091Z,101257.56
2023-04-26T11:34:04.729Z,101255.75
2023-04-26T11:39:06.971Z,101244.03
2023-04-26T11:44:11.502Z,101242.28
2023-04-26T11:49:13.802Z,101246.13
2023-04-26T11:54:36.132Z,101236.00
2023-04-26T11:59:37.922Z,101236.31
2023-04-26T12:04:40.832Z,101237.03
2023-04-26T12:09:42.809Z,101235.97
2023-04-26T12:14:47.119Z,101244.78
2023-04-26T12:19:50.032Z,101250.97
2023-04-26T12:25:04.481Z,101247.19
2023-04-26T12:30:07.009Z,101246.88
2023-04-26T12:35:09.146Z,101263.56
2023-04-26T12:40:11.714Z,101252.00
2023-04-26T12:45:13.577Z,101243.06
2023-04-26T12:50:17.970Z,101237.41
2023-04-26T12:55:20.799Z,101232.16
2023-04-26T13:00:22.859Z,101229.84
2023-04-26T13:05:27.196Z,101225.28
2023-04-26T13:10:28.869Z,101221.69
2023-04-26T13:15:30.773Z,101210.53
2023-04-26T13:20:32.575Z,101214.13
2023-04-26T13:25:34.428Z,101204.38
2023-04-26T13:30:36.057Z,101211.78
2023-04-26T13:35:37.947Z,101220.72
2023-04-26T13:40:39.770Z,101222.28
2023-04-26T13:45:41.325Z,101223.13
2023-04-26T13:50:42.856Z,101209.19
2023-04-26T13:55:44.394Z,101209.88
2023-04-26T14:00:45.982Z,101196.91
2023-04-26T14:05:47.548Z,101196.97
2023-04-26T14:10:49.160Z,101186.53
2023-04-26T14:15:50.858Z,101177.50
2023-04-26T14:20:53.536Z,101185.47
2023-04-26T14:25:55.167Z,101173.75
2023-04-26T14:30:59.641Z,101179.81
2023-04-26T14:36:01.384Z,101177.34
2023-04-26T14:41:03.183Z,101186.09
2023-04-26T14:46:05.801Z,101173.19
2023-04-26T14:51:07.350Z,101166.63
2023-04-26T14:56:09.069Z,101179.34
2023-04-26T15:01:10.927Z,101181.56
2023-04-26T15:06:12.936Z,101197.16
2023-04-26T15:11:14.838Z,101178.75
2023-04-26T15:16:17.860Z,101160.25
2023-04-26T15:21:19.659Z,101151.50
2023-04-26T15:26:21.540Z,101165.13
2023-04-26T15:31:23.268Z,101152.44
2023-04-26T15:36:25.375Z,101149.75
2023-04-26T15:41:27.166Z,101142.44
2023-04-26T15:46:28.751Z,101146.41
2023-04-26T15:51:30.492Z,101147.13
2023-04-26T15:56:32.096Z,101147.19
2023-04-26T16:01:33.774Z,101136.13
2023-04-26T16:06:35.570Z,101150.97
2023-04-26T16:11:37.295Z,101152.91
2023-04-26T16:16:40.150Z,101145.94
2023-04-26T16:21:41.929Z,101159.38
2023-04-26T16:26:43.676Z,101153.44
2023-04-26T16:31:45.458Z,101152.34
2023-04-26T16:36:47.195Z,101143.19
2023-04-26T16:41:49.007Z,101142.59
2023-04-26T16:46:50.985Z,101133.19
2023-04-26T16:51:52.509Z,101131.28
2023-04-26T16:56:54.269Z,101135.38
2023-04-26T17:01:55.862Z,101136.59
2023-04-26T17:06:57.418Z,101145.53
2023-04-26T17:11:59.070Z,101148.41
2023-04-26T17:17:00.763Z,101150.59
2023-04-26T17:22:02.441Z,101151.19
2023-04-26T17:27:03.977Z,101143.56
2023-04-26T17:32:05.758Z,101144.66
2023-04-26T17:37:07.528Z,101141.41
2023-04-26T17:42:09.025Z,101140.25
2023-04-26T17:47:10.594Z,101153.81
2023-04-26T17:52:12.121Z,101147.94
2023-04-26T17:57:13.748Z,101154.50
2023-04-26T18:02:15.321Z,101155.28
2023-04-26T18:07:16.868Z,101156.09
2023-04-26T18:12:18.429Z,101152.34
2023-04-26T18:17:21.090Z,101158.06
2023-04-26T18:22:22.783Z,101160.28
2023-04-26T18:27:24.363Z,101166.00
2023-04-26T18:32:26.052Z,101165.25
2023-04-26T18:37:27.872Z,101169.69
2023-04-26T18:42:32.285Z,101177.41
2023-04-26T18:47:33.920Z,101183.50
2023-04-26T18:52:35.472Z,101191.66
2023-04-26T18:57:37.028Z,101196.03
2023-04-26T19:02:38.767Z,101191.03
2023-04-26T19:07:40.367Z,101197.78
2023-04-26T19:12:41.886Z,101203.19
2023-04-26T19:17:43.440Z,101211.84
2023-04-26T19:22:45.301Z,101219.72
2023-04-26T19:27:47.290Z,101222.09
2023-04-26T19:32:48.868Z,101222.97
2023-04-26T19:37:50.865Z,101232.34
2023-04-26T19:42:52.395Z,101226.63
2023-04-26T19:47:53.925Z,101234.38
2023-04-26T19:52:55.569Z,101239.09
2023-04-26T19:57:57.174Z,101232.53
2023-04-26T20:02:58.938Z,101230.09
2023-04-26T20:08:01.946Z,101242.13
2023-04-26T20:13:04.010Z,101244.94
2023-04-26T20:18:06.202Z,101246.72
2023-04-26T20:23:07.779Z,101254.59
2023-04-26T20:28:09.464Z,101257.69
2023-04-26T20:33:11.084Z,101262.44
2023-04-26T20:38:12.698Z,101247.56
2023-04-26T20:43:14.699Z,101254.47
2023-04-26T20:48:16.230Z,101250.69
2023-04-26T20:53:17.757Z,101245.13
2023-04-26T20:58:19.522Z,101252.31
2023-04-26T21:03:21.956Z,101249.72
2023-04-26T21:08:23.729Z,101253.44
2023-04-26T21:13:25.232Z,101248.69
2023-04-26T21:18:26.838Z,101257.56
2023-04-26T21:23:28.427Z,101254.94
2023-04-26T21:28:30.044Z,101264.94
2023-04-26T21:33:32.444Z,101259.56
2023-04-26T21:38:34.102Z,101257.31
2023-04-26T21:43:35.640Z,101257.13
2023-04-26T21:48:37.180Z,101262.25
2023-04-26T21:53:38.700Z,101271.41
2023-04-26T21:58:41.034Z,101268.94
2023-04-26T22:03:42.965Z,101266.31
2023-04-26T22:08:44.625Z,101261.75
2023-04-26T22:13:46.230Z,101270.28
2023-04-26T22:18:47.732Z,101268.59
2023-04-26T22:23:49.369Z,101268.44
2023-04-26T22:28:50.854Z,101269.94
2023-04-26T22:33:52.386Z,101275.66
2023-04-26T22:38:53.911Z,101276.47
2023-04-26T22:43:55.543Z,101276.66
2023-04-26T22:48:57.395Z,101279.44
2023-04-26T22:53:58.937Z,101275.34
2023-04-26T22:59:01.989Z,101280.59
2023-04-26T23:04:03.719Z,101279.63
2023-04-26T23:09:05.532Z,101282.06
2023-04-26T23:14:07.421Z,101286.81
2023-04-26T23:19:08.990Z,101282.38
2023-04-26T23:24:10.533Z,101279.59
2023-04-26T23:29:12.370Z,101281.41
2023-04-26T23:34:14.176Z,101281.72
2023-04-26T23:39:15.922Z,101287.09
2023-04-26T23:44:17.554Z,101286.94
2023-04-26T23:49:19.231Z,101291.38
2023-04-26T23:54:20.957Z,101276.16
2023-04-26T23:59:22.772Z,101278.78
